Time;durP1;ratioP1;P1;durP2;ratioP2;P2;SDS_P1;SDS_P2;PMS_P1;PMS_P2;Temp;Humidity;BMP_temperature;BMP_pressure;BME280_temperature;BME280_humidity;BME280_pressure;Samples;Min_cycle;Max_cycle;Signal;HPM_P1;HPM_P2
2021/11/11 00:00:19;;;;;;;7.93;7.20;;;;;;;4.17;89.72;101465.25;5083498;28;20248;-76
2021/11/11 00:02:46;;;;;;;8.27;7.47;;;;;;;4.13;89.92;101471.19;5083307;28;20711;-76
2021/11/11 00:05:13;;;;;;;11.77;7.67;;;;;;;4.16;90.23;101457.44;5083920;28;20197;-76
2021/11/11 00:07:39;;;;;;;9.47;8.47;;;;;;;4.16;90.93;101447.13;5083366;28;20202;-76
2021/11/11 00:10:07;;;;;;;10.93;8.20;;;;;;;4.26;91.12;101440.44;5083133;28;20581;-76
2021/11/11 00:12:34;;;;;;;8.20;7.40;;;;;;;4.29;90.70;101433.66;5083329;28;20796;-76
2021/11/11 00:15:00;;;;;;;8.50;7.73;;;;;;;4.34;90.82;101439.81;5083808;28;20208;-76
2021/11/11 00:17:28;;;;;;;8.87;7.97;;;;;;;4.31;90.76;101452.66;5083469;28;20200;-75
2021/11/11 00:19:55;;;;;;;9.57;8.07;;;;;;;4.33;91.01;101445.81;5082764;28;20275;-75
2021/11/11 00:22:21;;;;;;;11.83;9.50;;;;;;;4.35;90.83;101443.25;5083427;28;20716;-76
2021/11/11 00:24:48;;;;;;;8.93;8.13;;;;;;;4.39;90.62;101445.06;5083131;28;20215;-76
2021/11/11 00:27:14;;;;;;;10.07;8.77;;;;;;;4.35;90.54;101440.66;5083210;28;20259;-75
2021/11/11 00:29:41;;;;;;;8.67;7.83;;;;;;;4.36;90.96;101430.38;5082993;28;20307;-75
2021/11/11 00:32:08;;;;;;;10.30;7.47;;;;;;;4.37;90.52;101428.66;5083114;28;20241;-76
2021/11/11 00:34:35;;;;;;;17.37;7.87;;;;;;;4.40;90.36;101428.75;5082449;28;20605;-76
2021/11/11 00:37:02;;;;;;;8.27;7.47;;;;;;;4.40;90.49;101428.75;5082910;28;20287;-75
2021/11/11 00:39:28;;;;;;;8.80;8.00;;;;;;;4.39;90.69;101398.53;5082970;28;20696;-76
2021/11/11 00:41:55;;;;;;;8.67;7.87;;;;;;;4.36;91.17;101399.34;5082944;28;20696;-75
2021/11/11 00:44:22;;;;;;;11.07;9.40;;;;;;;4.36;90.96;101401.03;5082899;28;20234;-76
2021/11/11 00:46:48;;;;;;;11.23;10.03;;;;;;;4.32;90.89;101402.72;5082354;28;20210;-76
2021/11/11 00:49:15;;;;;;;14.97;9.40;;;;;;;4.38;90.73;101417.50;5082111;28;20249;-75
2021/11/11 00:51:43;;;;;;;12.33;8.97;;;;;;;4.46;90.49;101426.28;5082646;28;20301;-76
2021/11/11 00:54:09;;;;;;;11.10;9.93;;;;;;;4.49;90.54;101417.72;5082624;28;20229;-76
2021/11/11 00:56:36;;;;;;;10.83;9.50;;;;;;;4.52;90.01;101422.94;5082613;28;20704;-76
2021/11/11 00:59:04;;;;;;;12.33;10.77;;;;;;;4.57;90.10;101439.44;5082377;28;20296;-75
2021/11/11 01:01:31;;;;;;;11.00;10.00;;;;;;;4.55;90.11;101428.19;5082247;28;20229;-75
2021/11/11 01:03:58;;;;;;;10.03;9.13;;;;;;;4.52;90.07;101420.34;5082493;28;20225;-76
2021/11/11 01:06:26;;;;;;;14.13;9.43;;;;;;;4.50;90.48;101415.16;5082701;28;20235;-76
2021/11/11 01:08:54;;;;;;;12.30;9.47;;;;;;;4.46;90.52;101400.44;5082362;28;20295;-76
2021/11/11 01:11:21;;;;;;;9.93;8.60;;;;;;;4.45;90.25;101409.00;5082539;28;20344;-76
2021/11/11 01:13:47;;;;;;;11.57;9.40;;;;;;;4.43;90.55;101389.16;5082509;28;20226;-75
2021/11/11 01:16:14;;;;;;;14.50;10.13;;;;;;;4.42;90.52;101389.97;5082686;28;20265;-75
2021/11/11 01:18:40;;;;;;;9.97;9.07;;;;;;;4.42;91.00;101383.13;5081155;28;20628;-76
2021/11/11 01:21:07;;;;;;;12.40;9.07;;;;;;;4.39;91.00;101377.88;5082378;28;20735;-76
2021/11/11 01:23:34;;;;;;;15.63;10.20;;;;;;;4.32;90.54;101383.72;5082573;28;20322;-76
2021/11/11 01:26:03;;;;;;;11.30;9.93;;;;;;;4.36;90.85;101382.94;5082312;28;20281;-76
2021/11/11 01:28:30;;;;;;;13.60;10.50;;;;;;;4.44;90.37;101399.53;5082144;28;20213;-75
2021/11/11 01:30:56;;;;;;;11.47;10.23;;;;;;;4.55;89.96;101403.19;5082457;28;20219;-75
2021/11/11 01:33:23;;;;;;;10.00;8.73;;;;;;;4.58;89.69;101418.78;5082184;28;20283;-76
2021/11/11 01:35:49;;;;;;;8.67;7.97;;;;;;;4.52;88.78;101441.94;5082440;28;20748;-76
2021/11/11 01:38:16;;;;;;;9.37;8.47;;;;;;;4.48;87.98;101481.47;5082332;28;20217;-75
2021/11/11 01:40:43;;;;;;;8.60;7.70;;;;;;;4.46;86.52;101521.03;5082445;28;20700;-76
2021/11/11 01:43:11;;;;;;;9.03;8.17;;;;;;;4.32;86.20;101531.94;5082090;28;20273;-76
2021/11/11 01:45:41;;;;;;;8.77;8.07;;;;;;;4.21;86.14;101543.72;5082018;28;20287;-75
2021/11/11 01:48:11;;;;;;;8.90;8.00;;;;;;;4.07;86.43;101545.09;5081738;28;20203;-75
2021/11/11 01:50:38;;;;;;;9.17;8.23;;;;;;;4.01;86.25;101539.78;5082169;28;20252;-76
2021/11/11 01:53:06;;;;;;;9.20;8.30;;;;;;;3.95;86.19;101532.72;5082312;28;20225;-76
2021/11/11 01:55:32;;;;;;;12.63;8.43;;;;;;;3.90;86.44;101513.66;5082197;28;20283;-75
2021/11/11 01:57:59;;;;;;;10.30;8.00;;;;;;;3.92;87.15;101497.34;5081951;28;20303;-75
2021/11/11 02:00:31;;;;;;;9.90;8.03;;;;;;;3.86;87.17;101484.28;5081494;28;20212;-75
2021/11/11 02:02:59;;;;;;;9.43;8.53;;;;;;;3.90;87.00;101490.41;5081967;28;20319;-76
2021/11/11 02:05:25;;;;;;;9.00;8.13;;;;;;;3.84;86.49;101487.66;5081917;28;20259;-75
2021/11/11 02:07:52;;;;;;;8.87;8.00;;;;;;;3.83;86.17;101497.13;5081831;28;20230;-76
2021/11/11 02:10:20;;;;;;;9.17;8.27;;;;;;;3.80;86.29;101506.50;5081570;28;20862;-75
2021/11/11 02:12:47;;;;;;;7.77;7.07;;;;;;;3.74;86.16;101502.91;5081719;28;20306;-77
2021/11/11 02:15:14;;;;;;;12.50;8.27;;;;;;;3.76;86.62;101502.97;5081687;28;20261;-76
2021/11/11 02:17:43;;;;;;;7.73;7.00;;;;;;;3.70;85.72;101514.00;5082165;28;20257;-76
2021/11/11 02:20:14;;;;;;;9.77;8.13;;;;;;;3.65;85.49;101544.00;5081990;28;20633;-76
2021/11/11 02:22:41;;;;;;;8.43;7.43;;;;;;;3.62;85.41;101535.28;5081996;28;20227;-76
2021/11/11 02:25:09;;;;;;;9.37;7.33;;;;;;;3.58;85.49;101540.34;5081421;28;20208;-76
2021/11/11 02:27:35;;;;;;;11.20;8.53;;;;;;;3.53;86.11;101528.19;5081599;28;20248;-76
2021/11/11 02:30:03;;;;;;;8.50;7.53;;;;;;;3.45;86.76;101507.31;5081821;28;20494;-75
2021/11/11 02:32:30;;;;;;;9.20;8.40;;;;;;;3.44;86.90;101494.38;5085775;28;20266;-76
2021/11/11 02:34:57;;;;;;;13.20;7.70;;;;;;;3.46;86.94;101474.63;5085688;28;20281;-75
2021/11/11 02:37:27;;;;;;;8.37;7.40;;;;;;;3.45;87.48;101460.84;5085181;28;20239;-75
2021/11/11 02:39:54;;;;;;;11.00;7.73;;;;;;;3.41;87.18;101459.03;5084832;28;20585;-76
2021/11/11 02:42:21;;;;;;;8.97;8.10;;;;;;;3.40;87.68;101446.09;5084460;28;20571;-76
2021/11/11 02:44:48;;;;;;;10.97;8.30;;;;;;;3.47;89.44;101391.19;5085595;28;20196;-76
2021/11/11 02:47:15;;;;;;;8.53;7.67;;;;;;;3.52;89.21;101382.72;5084111;28;21450;-75
2021/11/11 02:49:41;;;;;;;8.20;7.43;;;;;;;3.51;88.73;101409.41;5085053;28;20234;-75
2021/11/11 02:52:08;;;;;;;8.43;7.73;;;;;;;3.53;87.45;101454.19;5085571;28;20972;-75
2021/11/11 02:54:37;;;;;;;9.27;8.37;;;;;;;3.49;87.40;101467.84;5085618;28;20207;-76
2021/11/11 02:57:04;;;;;;;10.27;8.00;;;;;;;3.54;86.71;101484.31;5085371;28;20217;-76
2021/11/11 02:59:34;;;;;;;9.10;8.20;;;;;;;3.50;86.31;101512.59;5084953;28;20208;-76
2021/11/11 03:02:00;;;;;;;9.53;8.40;;;;;;;3.46;86.04;101534.00;5084821;28;20323;-76
2021/11/11 03:04:26;;;;;;;10.77;9.77;;;;;;;3.47;86.73;101503.06;5085360;28;20229;-76
2021/11/11 03:06:52;;;;;;;11.97;9.63;;;;;;;3.47;87.34;101485.00;5085273;28;20232;-75
2021/11/11 03:09:19;;;;;;;10.03;8.97;;;;;;;3.31;87.41;101490.56;5084525;28;20207;-75
2021/11/11 03:11:48;;;;;;;10.60;9.60;;;;;;;2.94;88.19;101461.16;5085234;28;20633;-76
2021/11/11 03:14:15;;;;;;;9.80;8.90;;;;;;;2.58;90.28;101418.03;5085258;28;20289;-77
2021/11/11 03:16:41;;;;;;;10.40;9.40;;;;;;;2.25;90.97;101385.25;5084702;28;20204;-75
2021/11/11 03:19:07;;;;;;;11.80;10.63;;;;;;;2.01;nan;101338.16;5084527;28;21098;-77
2021/11/11 03:21:34;;;;;;;11.63;10.10;;;;;;;1.73;94.27;101299.56;5085073;28;20256;-77
2021/11/11 03:24:00;;;;;;;10.87;9.97;;;;;;;1.67;95.24;101252.19;5084661;28;20220;-76
2021/11/11 03:26:26;;;;;;;11.73;10.53;;;;;;;1.53;95.85;101236.34;5084955;28;20208;-76
2021/11/11 03:28:54;;;;;;;11.40;10.33;;;;;;;1.49;96.55;101216.50;5084756;28;20265;-76
2021/11/11 03:31:21;;;;;;;12.83;11.03;;;;;;;1.56;96.77;101193.53;5084606;28;20221;-77
2021/11/11 03:33:49;;;;;;;10.40;9.40;;;;;;;1.63;96.72;101194.63;5084299;28;20802;-76
2021/11/11 03:36:16;;;;;;;10.67;9.60;;;;;;;1.69;97.00;101193.91;5084535;28;20230;-76
2021/11/11 03:38:43;;;;;;;11.10;10.07;;;;;;;1.69;97.08;101191.34;5084166;28;20200;-76
2021/11/11 03:41:09;;;;;;;11.83;10.60;;;;;;;1.83;96.70;101190.03;5083860;28;20263;-76
2021/11/11 03:43:36;;;;;;;11.07;9.93;;;;;;;2.09;96.68;101184.75;5084053;28;20906;-76
2021/11/11 03:46:03;;;;;;;11.03;10.07;;;;;;;2.25;96.75;101211.81;5084736;28;20285;-77
2021/11/11 03:48:30;;;;;;;11.27;10.17;;;;;;;2.26;96.04;101211.84;5083383;28;20201;-76
2021/11/11 03:50:56;;;;;;;11.20;10.20;;;;;;;2.29;96.23;101221.34;5084367;28;20665;-77
2021/11/11 03:53:23;;;;;;;11.17;10.17;;;;;;;2.42;97.22;101214.81;5084457;28;20305;-76
2021/11/11 03:55:49;;;;;;;11.60;10.40;;;;;;;2.54;97.19;101204.88;5084490;28;20995;-76
2021/11/11 03:58:17;;;;;;;23.50;16.27;;;;;;;2.70;97.28;101196.69;5083739;28;20216;-77
2021/11/11 04:00:45;;;;;;;19.87;16.00;;;;;;;3.01;98.02;101173.34;5083744;28;20204;-77
2021/11/11 04:03:13;;;;;;;25.77;16.60;;;;;;;3.37;97.60;101181.09;5083688;28;20217;-77
2021/11/11 04:05:40;;;;;;;18.57;15.20;;;;;;;3.59;96.85;101197.91;5084348;28;20201;-77
2021/11/11 04:08:07;;;;;;;18.47;16.17;;;;;;;3.82;95.83;101221.63;5084069;28;20204;-77
2021/11/11 04:10:35;;;;;;;24.57;15.43;;;;;;;4.03;94.96;101259.97;5083826;28;20203;-77
2021/11/11 04:13:04;;;;;;;18.07;16.10;;;;;;;4.11;94.03;101294.56;5083988;28;20318;-76
2021/11/11 04:15:31;;;;;;;18.33;15.37;;;;;;;4.17;93.80;101294.69;5083829;28;20256;-76
2021/11/11 04:17:57;;;;;;;19.03;15.77;;;;;;;4.26;93.45;101306.97;5083377;28;20241;-76
2021/11/11 04:20:26;;;;;;;19.33;14.63;;;;;;;4.29;93.51;101322.50;5083796;28;20638;-76
2021/11/11 04:22:55;;;;;;;21.17;15.67;;;;;;;4.30;93.61;101308.78;5083481;28;20229;-76
2021/11/11 04:25:27;;;;;;;17.93;15.67;;;;;;;4.38;93.49;101329.59;5083667;28;20668;-76
2021/11/11 04:27:57;;;;;;;16.97;14.77;;;;;;;4.39;92.88;101341.69;5083472;28;20210;-76
2021/11/11 04:30:28;;;;;;;18.63;14.23;;;;;;;4.43;92.64;101346.06;5083237;28;20205;-77
2021/11/11 04:32:54;;;;;;;22.73;15.37;;;;;;;4.47;92.40;101339.25;5083641;28;20236;-76
2021/11/11 04:35:23;;;;;;;17.87;15.13;;;;;;;4.49;92.88;101324.66;5083564;28;20206;-76
2021/11/11 04:37:59;;;;;;;17.47;15.60;;;;;;;4.48;92.88;101325.47;5083079;28;20211;-76
2021/11/11 04:40:53;;;;;;;19.57;15.23;;;;;;;4.51;92.75;101334.16;5082819;28;20290;-76
2021/11/11 04:43:45;;;;;;;19.73;15.20;;;;;;;4.56;92.98;101331.69;5083416;28;20229;-77
2021/11/11 05:00:17;;;;;;;17.40;15.57;;;;;;;4.73;91.38;101388.91;5082580;28;20229;-77
2021/11/11 05:03:03;;;;;;;19.53;15.60;;;;;;;4.72;90.82;101393.22;5083095;28;20237;-77
2021/11/11 05:05:29;;;;;;;19.93;15.43;;;;;;;4.72;91.62;101394.94;5082834;28;21135;-76
2021/11/11 05:07:56;;;;;;;20.10;15.27;;;;;;;4.70;91.85;101381.97;5082981;28;20210;-76
2021/11/11 05:10:26;;;;;;;18.57;15.73;;;;;;;4.69;91.54;101381.94;5082810;28;20692;-76
2021/11/11 05:12:54;;;;;;;17.63;15.87;;;;;;;4.78;91.90;101369.19;5082727;28;20725;-77
2021/11/11 05:15:21;;;;;;;17.50;15.70;;;;;;;4.80;91.29;101382.13;5082819;28;20253;-77
2021/11/11 05:17:48;;;;;;;17.27;15.50;;;;;;;4.82;90.77;101402.03;5082022;28;20214;-77
2021/11/11 05:20:15;;;;;;;13.97;12.47;;;;;;;4.88;91.10;101401.28;5082513;28;20942;-77
2021/11/11 05:22:42;;;;;;;18.67;13.60;;;;;;;4.80;90.59;101414.06;5082571;28;20255;-77
2021/11/11 05:25:10;;;;;;;17.83;15.73;;;;;;;4.63;91.38;101394.75;5082803;28;20211;-77
2021/11/11 05:27:39;;;;;;;17.93;16.03;;;;;;;4.54;92.09;101377.34;5082702;28;20719;-77
2021/11/11 05:30:08;;;;;;;15.67;13.97;;;;;;;4.47;92.47;101367.69;5082458;28;20213;-76
2021/11/11 05:32:35;;;;;;;17.27;14.90;;;;;;;4.40;93.68;101324.44;5082208;28;20727;-77
2021/11/11 05:35:02;;;;;;;15.27;13.77;;;;;;;4.34;94.33;101297.66;5082568;28;20226;-76
2021/11/11 05:37:28;;;;;;;20.60;15.47;;;;;;;4.33;94.63;101279.53;5082690;28;20202;-76
2021/11/11 05:39:55;;;;;;;17.77;14.13;;;;;;;4.31;94.26;101279.47;5082334;28;20643;-76
2021/11/11 05:42:21;;;;;;;23.20;15.47;;;;;;;4.43;95.26;101258.19;5081792;28;20769;-76
2021/11/11 05:44:49;;;;;;;19.73;15.97;;;;;;;4.60;94.99;101250.75;5082614;28;20751;-76
2021/11/11 05:47:16;;;;;;;17.53;15.47;;;;;;;4.74;95.55;101233.78;5082204;28;20246;-77
2021/11/11 05:49:43;;;;;;;17.50;15.60;;;;;;;4.84;95.45;101232.22;5081780;28;20208;-76
2021/11/11 05:52:09;;;;;;;18.03;15.00;;;;;;;4.93;95.39;101228.91;5082011;28;20742;-76
2021/11/11 05:54:38;;;;;;;17.10;13.77;;;;;;;5.05;95.26;101236.88;5082401;28;20678;-76
2021/11/11 05:57:05;;;;;;;19.07;14.50;;;;;;;5.18;94.89;101248.31;5082300;28;20257;-76
2021/11/11 05:59:32;;;;;;;15.37;13.53;;;;;;;5.32;94.73;101251.13;5082228;28;20217;-76
2021/11/11 06:02:01;;;;;;;14.20;12.70;;;;;;;5.34;93.31;101293.44;5081956;28;20334;-76
2021/11/11 06:04:27;;;;;;;15.07;13.47;;;;;;;5.34;92.79;101316.72;5081986;28;20208;-77
2021/11/11 06:06:54;;;;;;;14.63;12.27;;;;;;;5.32;92.61;101327.03;5086165;28;20694;-77
2021/11/11 06:09:20;;;;;;;14.90;13.27;;;;;;;5.33;93.62;101312.38;5085806;28;20560;-76
2021/11/11 06:11:46;;;;;;;20.63;14.57;;;;;;;5.33;94.02;101289.97;5086054;28;20678;-77
2021/11/11 06:14:13;;;;;;;22.23;14.23;;;;;;;5.36;94.29;101282.25;5086122;28;20257;-77
2021/11/11 06:16:39;;;;;;;17.17;13.83;;;;;;;5.42;94.06;101286.66;5086313;28;20286;-77
2021/11/11 06:19:09;;;;;;;15.30;13.70;;;;;;;5.51;94.25;101296.25;5085666;28;20206;-77
2021/11/11 06:21:37;;;;;;;15.07;13.60;;;;;;;5.54;94.07;101304.97;5085962;28;20205;-76
2021/11/11 06:24:04;;;;;;;20.17;14.80;;;;;;;5.60;94.32;101301.59;5086171;28;20240;-76
2021/11/11 06:26:30;;;;;;;15.20;13.47;;;;;;;5.65;94.66;101304.25;5086056;28;20203;-77
2021/11/11 06:28:57;;;;;;;13.77;12.47;;;;;;;5.68;94.88;101296.53;5085855;28;20210;-76
2021/11/11 06:31:23;;;;;;;15.63;12.63;;;;;;;5.74;94.19;101314.75;5086327;28;20561;-77
2021/11/11 06:33:49;;;;;;;14.07;12.73;;;;;;;5.78;93.93;101311.38;5085260;28;20237;-77
2021/11/11 06:36:17;;;;;;;17.40;11.87;;;;;;;5.85;93.93;101318.38;5085465;28;20680;-76
2021/11/11 06:38:44;;;;;;;13.33;12.00;;;;;;;5.92;94.45;101325.38;5085579;28;20238;-76
2021/11/11 06:41:10;;;;;;;12.60;11.50;;;;;;;6.00;92.31;101372.19;5085033;28;20741;-76
2021/11/11 06:43:37;;;;;;;10.97;9.97;;;;;;;5.92;89.91;101452.34;5085550;28;20238;-76
2021/11/11 06:46:05;;;;;;;11.03;10.03;;;;;;;5.88;88.38;101524.84;5085747;28;20210;-76
2021/11/11 06:48:32;;;;;;;10.73;9.80;;;;;;;5.82;88.42;101554.09;5084808;28;20207;-76
2021/11/11 06:50:58;;;;;;;11.53;10.43;;;;;;;5.72;87.84;101572.91;5085466;28;20264;-77
2021/11/11 06:53:27;;;;;;;11.10;10.10;;;;;;;5.74;88.14;101576.41;5085424;28;20219;-77
2021/11/11 06:55:53;;;;;;;11.13;10.20;;;;;;;5.67;87.46;101570.25;5085591;28;20211;-76
2021/11/11 06:58:22;;;;;;;11.97;10.60;;;;;;;5.61;88.49;101562.34;5085147;28;20215;-76
2021/11/11 07:00:49;;;;;;;11.70;10.60;;;;;;;5.63;89.24;101545.13;5084779;28;20215;-76
2021/11/11 07:03:16;;;;;;;12.10;11.03;;;;;;;5.65;88.53;101545.13;5084683;28;20232;-76
2021/11/11 07:05:42;;;;;;;11.63;10.47;;;;;;;5.63;88.17;101554.59;5085556;28;20230;-76
2021/11/11 07:08:10;;;;;;;11.33;9.77;;;;;;;5.60;88.47;101537.28;5085185;28;20290;-76
2021/11/11 07:10:39;;;;;;;12.80;11.63;;;;;;;5.56;89.77;101513.03;5085183;28;21285;-76
2021/11/11 07:13:06;;;;;;;11.63;10.63;;;;;;;5.56;89.32;101501.81;5084647;28;20284;-78
2021/11/11 07:15:33;;;;;;;11.90;10.70;;;;;;;5.62;90.28;101493.28;5089134;28;20207;-77
2021/11/11 07:18:00;;;;;;;12.83;11.00;;;;;;;5.66;89.25;101511.50;5085333;28;20202;-76
2021/11/11 07:20:28;;;;;;;11.90;10.80;;;;;;;5.68;89.12;101525.34;5086416;28;20207;-77
2021/11/11 07:22:59;;;;;;;12.50;11.30;;;;;;;5.69;88.79;101534.88;5086184;28;20313;-76
2021/11/11 07:25:26;;;;;;;14.37;12.93;;;;;;;5.24;89.80;101516.72;5085665;28;20237;-76
2021/11/11 07:27:54;;;;;;;13.93;12.53;;;;;;;5.34;90.32;101490.19;5085625;28;20584;-75
2021/11/11 07:30:21;;;;;;;13.00;11.50;;;;;;;5.47;90.62;101486.09;5085776;28;20207;-79
2021/11/11 07:32:48;;;;;;;13.60;12.20;;;;;;;5.39;90.31;101493.72;5085480;28;20222;-77
2021/11/11 07:35:15;;;;;;;14.77;13.40;;;;;;;5.01;91.17;101472.25;5085161;28;20658;-76
2021/11/11 07:37:43;;;;;;;15.30;13.50;;;;;;;4.71;92.47;101422.50;5086457;28;20238;-78
2021/11/11 07:40:13;;;;;;;15.47;13.93;;;;;;;4.52;93.47;101381.56;5083715;28;20253;-77
2021/11/11 07:42:39;;;;;;;15.07;13.33;;;;;;;4.38;94.38;101348.56;5086033;28;20241;-78
2021/11/11 07:45:09;;;;;;;15.20;13.60;;;;;;;4.49;94.88;101325.50;5083391;28;20298;-77
2021/11/11 07:47:36;;;;;;;15.17;13.67;;;;;;;4.62;94.89;101341.25;5083293;28;20206;-78
2021/11/11 07:50:07;;;;;;;14.07;12.70;;;;;;;4.76;94.43;101350.19;5082609;28;20208;-77
2021/11/11 07:52:34;;;;;;;15.20;13.43;;;;;;;4.74;94.10;101357.03;5083048;28;20667;-77
2021/11/11 07:55:01;;;;;;;16.87;15.07;;;;;;;4.52;95.14;101343.69;5082585;28;20208;-77
2021/11/11 07:57:30;;;;;;;17.03;14.47;;;;;;;4.40;95.75;101320.16;5082615;28;20218;-76
2021/11/11 07:59:56;;;;;;;16.33;14.73;;;;;;;4.49;96.44;101303.97;5083574;28;20324;-77
2021/11/11 08:02:25;;;;;;;16.30;14.70;;;;;;;4.52;95.84;101291.06;5083930;28;20248;-76
2021/11/11 08:04:52;;;;;;;19.77;17.98;;;;;;;4.69;96.56;101297.44;5081235;28;20436;-76
2021/11/11 08:07:19;;;;;;;15.80;14.17;;;;;;;4.69;95.45;101323.31;5083273;28;20500;-76
2021/11/11 08:09:46;;;;;;;13.43;12.13;;;;;;;4.32;95.32;101337.22;5084136;28;20214;-76
2021/11/11 08:12:13;;;;;;;13.17;11.87;;;;;;;4.26;95.44;101342.25;5084707;28;20263;-76
2021/11/11 08:14:40;;;;;;;13.53;12.17;;;;;;;4.23;96.30;101327.56;5082626;28;20205;-76
2021/11/11 08:17:08;;;;;;;15.30;12.40;;;;;;;4.20;96.39;101314.56;5083354;28;20208;-75
2021/11/11 08:19:35;;;;;;;15.87;14.27;;;;;;;4.28;96.75;101306.97;5081829;28;20776;-76
2021/11/11 08:22:02;;;;;;;14.60;13.27;;;;;;;4.37;96.26;101308.03;5084027;28;20212;-76
2021/11/11 08:24:28;;;;;;;16.40;13.33;;;;;;;4.54;96.24;101310.97;5083466;28;20641;-76
2021/11/11 08:26:55;;;;;;;13.53;12.30;;;;;;;4.75;95.43;101326.00;5083573;28;20264;-76
2021/11/11 08:29:21;;;;;;;13.83;12.53;;;;;;;4.73;95.27;101339.78;5083409;28;20264;-76
2021/11/11 08:31:47;;;;;;;13.90;12.60;;;;;;;4.87;95.25;101343.47;5083350;28;20206;-75
2021/11/11 08:34:14;;;;;;;15.57;14.17;;;;;;;4.97;94.96;101342.84;5082945;28;20235;-76
2021/11/11 08:36:42;;;;;;;15.20;12.40;;;;;;;5.09;94.85;101354.25;5084017;28;20241;-76
2021/11/11 08:39:08;;;;;;;13.80;12.60;;;;;;;5.23;94.72;101367.44;5083070;28;20202;-76
2021/11/11 08:41:34;;;;;;;13.87;12.47;;;;;;;5.45;95.02;101369.56;5083576;28;21136;-76
2021/11/11 08:44:02;;;;;;;13.53;12.17;;;;;;;5.62;94.20;101381.91;5083482;28;20234;-76
2021/11/11 08:46:29;;;;;;;13.87;12.57;;;;;;;5.71;93.47;101400.22;5083489;28;20207;-76
2021/11/11 08:48:55;;;;;;;13.10;11.90;;;;;;;5.72;93.36;101413.16;5082029;28;20705;-75
2021/11/11 08:51:21;;;;;;;13.63;12.47;;;;;;;5.81;92.98;101412.47;5083594;28;20286;-76
2021/11/11 08:53:49;;;;;;;13.40;11.77;;;;;;;5.97;93.08;101406.69;5082864;28;20258;-76
2021/11/11 08:56:16;;;;;;;13.30;11.97;;;;;;;6.09;93.06;101406.03;5082966;28;20231;-76
2021/11/11 08:58:45;;;;;;;14.30;12.90;;;;;;;6.05;92.73;101430.16;5082715;28;20221;-76
2021/11/11 09:01:12;;;;;;;14.57;13.10;;;;;;;6.08;92.54;101422.41;5083357;28;20211;-76
2021/11/11 09:03:40;;;;;;;13.03;11.80;;;;;;;6.23;93.48;101426.97;5082862;28;20233;-76
2021/11/11 09:06:07;;;;;;;13.00;11.70;;;;;;;6.38;93.32;101415.94;5082915;28;20212;-76
2021/11/11 09:08:33;;;;;;;13.57;11.60;;;;;;;6.41;93.51;101425.50;5082688;28;20241;-76
2021/11/11 09:11:02;;;;;;;12.70;11.47;;;;;;;6.44;92.80;101415.16;5083047;28;20258;-76
2021/11/11 09:13:30;;;;;;;13.20;11.80;;;;;;;6.41;93.13;101428.09;5082567;28;20265;-76
2021/11/11 09:15:57;;;;;;;11.57;10.57;;;;;;;6.47;93.61;101421.25;5083017;28;20302;-76
2021/11/11 09:18:24;;;;;;;12.50;11.30;;;;;;;6.56;93.71;101399.75;5082393;28;20214;-76
2021/11/11 09:20:50;;;;;;;11.60;10.53;;;;;;;6.62;93.93;101398.94;5083110;28;20211;-76
2021/11/11 09:23:17;;;;;;;10.70;9.73;;;;;;;6.74;93.62;101391.34;5083021;28;20315;-76
2021/11/11 09:25:44;;;;;;;10.20;9.20;;;;;;;6.86;93.60;101377.66;5082515;28;20622;-76
2021/11/11 09:28:12;;;;;;;10.27;9.03;;;;;;;6.86;93.66;101401.00;5082283;28;21096;-75
2021/11/11 09:30:39;;;;;;;8.83;8.13;;;;;;;6.83;92.00;101455.44;5082917;28;20260;-76
2021/11/11 09:33:09;;;;;;;10.33;9.33;;;;;;;6.96;92.26;101449.56;5082413;28;20220;-76
2021/11/11 09:35:35;;;;;;;9.37;8.43;;;;;;;7.07;92.72;101434.97;5082642;28;20270;-76
2021/11/11 09:38:02;;;;;;;9.80;8.87;;;;;;;7.15;92.06;101458.44;5082505;28;20220;-76
2021/11/11 09:40:29;;;;;;;9.83;8.87;;;;;;;7.07;91.10;101480.84;5084325;28;20210;-76
2021/11/11 09:42:57;;;;;;;9.07;8.27;;;;;;;7.13;90.91;101473.13;5086790;28;20231;-76
2021/11/11 09:45:28;;;;;;;9.93;8.97;;;;;;;7.26;91.41;101467.22;5086825;28;20277;-76
2021/11/11 09:47:56;;;;;;;9.30;8.43;;;;;;;7.26;91.43;101466.34;5086617;28;20256;-76
2021/11/11 09:50:25;;;;;;;9.03;8.23;;;;;;;7.30;92.61;101453.41;5086431;28;20245;-76
2021/11/11 09:52:52;;;;;;;9.70;8.23;;;;;;;7.06;91.16;101479.09;5086613;28;20231;-75
2021/11/11 10:00:52;;;;;;;9.37;8.43;;;;;;;7.14;92.86;101438.53;5086567;28;20293;-76
2021/11/11 10:03:19;;;;;;;8.27;7.47;;;;;;;7.24;92.46;101439.50;5086179;28;20266;-76
2021/11/11 10:05:46;;;;;;;10.57;7.80;;;;;;;7.36;92.71;101435.28;5086635;28;20200;-76
2021/11/11 10:08:31;;;;;;;8.07;7.37;;;;;;;7.33;92.84;101437.88;5085912;28;20261;-77
2021/11/11 10:10:58;;;;;;;9.73;8.80;;;;;;;7.39;92.49;101449.16;5086157;28;20211;-76
2021/11/11 10:13:25;;;;;;;8.63;7.83;;;;;;;7.42;92.36;101449.22;5085893;28;20226;-76
2021/11/11 10:16:02;;;;;;;9.53;8.63;;;;;;;7.43;92.44;101448.34;5086112;28;20236;-76
2021/11/11 10:18:48;;;;;;;9.00;8.30;;;;;;;7.54;92.31;101438.94;5085550;28;20787;-76
2021/11/11 10:21:27;;;;;;;7.67;6.97;;;;;;;7.50;92.23;101450.16;5085847;28;20259;-76
2021/11/11 10:23:56;;;;;;;7.33;6.63;;;;;;;7.58;93.03;101452.84;5085588;28;20235;-76
2021/11/11 10:26:28;;;;;;;6.70;6.20;;;;;;;7.71;92.41;101454.66;5086014;28;20274;-76
2021/11/11 10:28:55;;;;;;;6.30;5.80;;;;;;;7.61;91.28;101484.94;5085607;28;20805;-76
2021/11/11 10:31:23;;;;;;;5.67;5.17;;;;;;;7.70;91.10;101481.53;5085955;28;20207;-76
2021/11/11 10:34:07;;;;;;;5.93;5.43;;;;;;;7.80;90.53;101493.75;5085623;28;20227;-76
2021/11/11 10:36:45;;;;;;;6.03;5.53;;;;;;;7.70;90.34;101508.38;5086261;28;20206;-76
2021/11/11 10:39:15;;;;;;;4.93;4.53;;;;;;;7.75;90.71;101504.13;5085862;28;20630;-76
2021/11/11 10:41:42;;;;;;;5.20;4.80;;;;;;;7.76;90.69;101510.19;5086001;28;20199;-76
2021/11/11 10:44:28;;;;;;;5.20;4.70;;;;;;;7.72;90.21;101501.47;5085204;28;20267;-75
2021/11/11 10:46:58;;;;;;;5.23;4.53;;;;;;;7.66;91.05;101497.94;5085687;28;20204;-76
2021/11/11 10:49:31;;;;;;;5.33;4.93;;;;;;;7.75;90.11;101492.84;5084988;28;20215;-76
2021/11/11 10:52:23;;;;;;;5.20;4.80;;;;;;;7.93;91.00;101484.34;5085554;28;20215;-76
2021/11/11 10:55:06;;;;;;;6.73;4.73;;;;;;;7.90;90.61;101487.78;5084918;28;20212;-76
2021/11/11 10:57:35;;;;;;;4.80;4.40;;;;;;;7.66;91.01;101477.16;5085440;28;20246;-76
2021/11/11 11:00:13;;;;;;;6.30;5.70;;;;;;;7.60;91.55;101466.72;5084918;28;20238;-76
2021/11/11 11:02:52;;;;;;;4.60;4.30;;;;;;;7.70;91.59;101455.53;5085170;28;20717;-76
2021/11/11 11:05:20;;;;;;;5.63;5.20;;;;;;;7.77;91.45;101465.16;5084932;28;20218;-76
2021/11/11 11:07:48;;;;;;;5.37;4.87;;;;;;;7.92;91.73;101451.41;5085093;28;20301;-76
2021/11/11 11:10:17;;;;;;;5.43;4.93;;;;;;;7.86;91.02;101470.41;5085060;28;20207;-76
2021/11/11 11:12:44;;;;;;;5.87;5.03;;;;;;;8.01;90.75;101467.09;5085224;28;20326;-76
2021/11/11 11:15:12;;;;;;;5.63;5.00;;;;;;;8.05;90.33;101476.66;5085165;28;20260;-76
2021/11/11 11:17:54;;;;;;;5.97;5.43;;;;;;;8.14;90.13;101489.72;5084615;28;20210;-76
2021/11/11 11:20:22;;;;;;;6.20;5.27;;;;;;;8.19;89.15;101507.97;5084882;28;20261;-76
2021/11/11 11:23:19;;;;;;;6.77;6.27;;;;;;;8.25;89.74;101513.22;5085120;28;20242;-76
2021/11/11 11:25:54;;;;;;;7.03;6.47;;;;;;;8.30;89.05;101516.72;5085033;28;20231;-76
2021/11/11 11:28:30;;;;;;;8.37;6.63;;;;;;;8.42;88.87;101541.13;5084523;28;20211;-76
2021/11/11 11:30:59;;;;;;;8.73;7.23;;;;;;;8.48;88.27;101549.88;5084880;28;20211;-76
2021/11/11 11:33:35;;;;;;;6.27;5.67;;;;;;;8.52;87.98;101566.34;5084470;28;20230;-76
2021/11/11 11:36:03;;;;;;;6.37;5.70;;;;;;;8.54;87.52;101585.44;5084910;28;20211;-76
2021/11/11 11:38:37;;;;;;;7.63;6.47;;;;;;;8.55;86.72;101613.22;5084163;28;20518;-76
2021/11/11 11:41:04;;;;;;;6.13;5.60;;;;;;;8.58;86.87;101614.97;5084683;28;20209;-76
2021/11/11 11:43:33;;;;;;;6.50;6.00;;;;;;;8.26;86.38;101634.59;5084334;28;20720;-76
2021/11/11 11:46:15;;;;;;;6.83;6.33;;;;;;;8.27;86.84;101602.53;5084436;28;20207;-76
2021/11/11 11:48:42;;;;;;;7.03;6.40;;;;;;;8.03;87.34;101605.78;5083555;28;20203;-76